createdAt,value
2017-08-24T00:01:40.216Z,3.45
2017-08-24T00:04:06.691Z,3.80
2017-08-24T00:06:33.121Z,3.47
2017-08-24T00:08:59.593Z,3.78
2017-08-24T00:11:26.033Z,3.90
2017-08-24T00:13:52.531Z,4.00
2017-08-24T00:16:19.020Z,3.80
2017-08-24T00:18:45.463Z,3.20
2017-08-24T00:21:11.958Z,3.67
2017-08-24T00:23:38.397Z,3.80
2017-08-24T00:26:04.872Z,3.72
2017-08-24T00:28:31.324Z,3.90
2017-08-24T00:30:57.804Z,3.58
2017-08-24T00:33:24.236Z,4.10
2017-08-24T00:35:50.745Z,3.28
2017-08-24T00:38:17.233Z,3.47
2017-08-24T00:40:43.697Z,3.70
2017-08-24T00:43:10.174Z,3.60
2017-08-24T00:45:36.605Z,3.72
2017-08-24T00:48:03.105Z,3.80
2017-08-24T00:50:29.621Z,3.72
2017-08-24T00:52:56.090Z,3.90
2017-08-24T00:55:22.608Z,3.35
2017-08-24T00:57:49.062Z,4.07
2017-08-24T01:00:15.540Z,4.22
2017-08-24T01:02:42.012Z,3.87
2017-08-24T01:05:08.553Z,4.05
2017-08-24T01:07:35.029Z,4.00
2017-08-24T01:10:01.517Z,4.60
2017-08-24T01:12:27.976Z,3.80
2017-08-24T01:14:54.440Z,3.72
2017-08-24T01:17:20.886Z,3.90
2017-08-24T01:19:47.317Z,3.70
2017-08-24T01:22:13.853Z,3.95
2017-08-24T01:24:40.385Z,4.50
2017-08-24T01:27:06.908Z,3.90
2017-08-24T01:29:33.401Z,3.45
2017-08-24T01:31:59.846Z,5.03
2017-08-24T01:34:26.329Z,4.00
2017-08-24T01:36:52.779Z,3.60
2017-08-24T01:39:19.228Z,4.00
2017-08-24T01:41:45.721Z,3.67
2017-08-24T01:44:12.220Z,4.10
2017-08-24T01:46:38.712Z,4.00
2017-08-24T01:49:05.221Z,4.07
2017-08-24T01:51:31.668Z,3.80
2017-08-24T01:53:58.076Z,4.10
2017-08-24T01:56:24.540Z,4.25
2017-08-24T01:58:51.061Z,4.40
2017-08-24T02:01:17.521Z,3.70
2017-08-24T02:03:43.969Z,3.75
2017-08-24T02:06:10.521Z,4.25
2017-08-24T02:08:36.966Z,4.15
2017-08-24T02:11:03.382Z,4.47
2017-08-24T02:13:29.845Z,4.05
2017-08-24T02:15:56.273Z,4.20
2017-08-24T02:18:22.809Z,4.37
2017-08-24T02:20:49.249Z,4.55
2017-08-24T02:23:15.685Z,4.45
2017-08-24T02:25:42.152Z,4.78
2017-08-24T02:28:08.632Z,4.80
2017-08-24T02:30:35.140Z,5.60
2017-08-24T02:33:01.606Z,4.97
2017-08-24T02:35:28.037Z,4.95
2017-08-24T02:37:54.512Z,4.65
2017-08-24T02:40:21.040Z,5.05
2017-08-24T02:42:47.883Z,4.97
2017-08-24T02:45:14.293Z,5.05
2017-08-24T02:47:40.825Z,4.97
2017-08-24T02:50:07.268Z,4.70
2017-08-24T02:52:33.706Z,4.70
2017-08-24T02:55:00.196Z,5.12
2017-08-24T02:57:26.637Z,5.95
2017-08-24T02:59:53.118Z,5.20
2017-08-24T03:02:19.565Z,5.28
2017-08-24T03:04:46.052Z,5.22
2017-08-24T03:07:12.571Z,5.15
2017-08-24T03:09:39.057Z,4.87
2017-08-24T03:12:05.505Z,5.55
2017-08-24T03:14:31.963Z,5.75
2017-08-24T03:16:58.762Z,5.87
2017-08-24T03:19:25.224Z,6.65
2017-08-24T03:21:51.633Z,6.12
2017-08-24T03:24:18.074Z,5.65
2017-08-24T03:26:44.549Z,6.50
2017-08-24T03:29:11.013Z,6.12
2017-08-24T03:31:37.464Z,5.55
2017-08-24T03:34:04.089Z,4.80
2017-08-24T03:36:30.659Z,4.95
2017-08-24T03:38:57.112Z,5.00
2017-08-24T03:41:23.605Z,4.85
2017-08-24T03:43:50.104Z,4.80
2017-08-24T03:46:16.566Z,4.72
2017-08-24T03:48:43.058Z,5.35
2017-08-24T03:51:09.508Z,4.93
2017-08-24T03:53:36.269Z,4.87
2017-08-24T03:56:02.755Z,4.78
2017-08-24T03:58:29.241Z,5.57
2017-08-24T04:00:55.653Z,5.35
2017-08-24T04:03:22.119Z,5.20
2017-08-24T04:05:49.489Z,5.40
2017-08-24T04:08:15.913Z,5.40
2017-08-24T04:10:42.568Z,5.18
2017-08-24T04:13:09.111Z,5.40
2017-08-24T04:15:35.641Z,5.78
2017-08-24T04:18:02.078Z,6.03
2017-08-24T04:20:28.542Z,4.70
2017-08-24T04:22:54.981Z,4.93
2017-08-24T04:25:21.438Z,4.70
2017-08-24T04:27:47.869Z,4.65
2017-08-24T04:30:14.342Z,5.35
2017-08-24T04:32:40.872Z,5.40
2017-08-24T04:35:07.297Z,5.30
2017-08-24T04:37:33.763Z,5.53
2017-08-24T04:40:00.281Z,5.25
2017-08-24T04:42:26.800Z,5.18
2017-08-24T04:44:53.279Z,5.37
2017-08-24T04:47:19.709Z,6.20
2017-08-24T04:49:46.169Z,5.70
2017-08-24T04:52:12.710Z,5.93
2017-08-24T04:54:39.210Z,5.57
2017-08-24T04:57:05.670Z,5.30
2017-08-24T04:59:32.139Z,6.57
2017-08-24T05:01:58.634Z,6.72
2017-08-24T05:04:25.180Z,7.03
2017-08-24T05:06:51.606Z,6.97
2017-08-24T05:09:18.174Z,8.50
2017-08-24T05:11:44.660Z,9.55
2017-08-24T05:14:11.136Z,7.55
2017-08-24T05:16:37.590Z,5.90
2017-08-24T05:19:04.057Z,5.10
2017-08-24T05:21:30.538Z,5.32
2017-08-24T05:23:56.988Z,5.50
2017-08-24T05:26:23.472Z,5.78
2017-08-24T05:28:49.899Z,6.20
2017-08-24T05:31:16.379Z,5.60
2017-08-24T05:33:42.882Z,5.28
2017-08-24T05:36:09.332Z,5.80
2017-08-24T05:38:35.781Z,5.72
2017-08-24T05:41:02.309Z,5.85
2017-08-24T05:43:28.785Z,5.20
2017-08-24T05:45:55.245Z,5.25
2017-08-24T05:48:21.653Z,5.75
2017-08-24T05:50:48.143Z,5.50
2017-08-24T05:53:14.589Z,6.70
2017-08-24T05:55:41.092Z,7.45
2017-08-24T05:58:07.555Z,6.90
2017-08-24T06:00:34.029Z,6.90
2017-08-24T06:03:00.568Z,7.00
2017-08-24T06:05:27.019Z,7.53
2017-08-24T06:07:53.468Z,7.35
2017-08-24T06:10:19.958Z,7.55
2017-08-24T06:12:46.377Z,7.05
2017-08-24T06:15:12.874Z,7.32
2017-08-24T06:17:39.374Z,7.95
2017-08-24T06:20:05.801Z,8.20
2017-08-24T06:22:32.272Z,6.93
2017-08-24T06:24:58.754Z,5.70
2017-08-24T06:27:25.328Z,6.25
2017-08-24T06:29:51.762Z,6.45
2017-08-24T06:32:18.198Z,7.70
2017-08-24T06:34:44.755Z,6.72
2017-08-24T06:37:12.487Z,6.78
2017-08-24T06:39:38.921Z,7.65
2017-08-24T06:42:07.324Z,8.43
2017-08-24T06:44:34.351Z,7.43
2017-08-24T06:47:00.889Z,7.00
2017-08-24T06:49:27.318Z,6.78
2017-08-24T06:51:53.762Z,7.60
2017-08-24T06:57:20.473Z,7.75
2017-08-24T06:59:46.956Z,7.78
2017-08-24T07:02:13.387Z,7.12
2017-08-24T07:04:39.853Z,7.47
2017-08-24T07:07:06.390Z,6.70
2017-08-24T07:09:32.854Z,6.43
2017-08-24T07:11:59.286Z,6.40
2017-08-24T07:14:25.727Z,6.60
2017-08-24T07:16:52.197Z,7.85
2017-08-24T07:19:18.608Z,7.62
2017-08-24T07:21:45.028Z,7.60
2017-08-24T07:24:11.548Z,7.35
2017-08-24T07:26:37.974Z,7.25
2017-08-24T07:29:04.416Z,7.40
2017-08-24T07:31:30.874Z,7.20
2017-08-24T07:33:57.378Z,7.50
2017-08-24T07:36:23.788Z,6.62
2017-08-24T07:38:50.221Z,7.75
2017-08-24T07:41:16.754Z,7.47
2017-08-24T07:43:43.209Z,7.90
2017-08-24T07:46:09.648Z,7.85
2017-08-24T07:48:36.113Z,7.80
2017-08-24T07:51:02.649Z,8.05
2017-08-24T07:53:29.159Z,7.25
2017-08-24T07:55:55.629Z,7.43
2017-08-24T07:58:22.045Z,7.22
2017-08-24T08:00:48.519Z,7.20
2017-08-24T08:03:15.019Z,7.90
2017-08-24T08:05:41.468Z,7.82
2017-08-24T08:08:07.948Z,8.00
2017-08-24T08:10:35.071Z,7.10
2017-08-24T08:13:01.601Z,6.78
2017-08-24T08:15:28.074Z,6.40
2017-08-24T08:17:54.533Z,6.32
2017-08-24T08:23:21.434Z,7.62
2017-08-24T08:25:47.920Z,6.45
2017-08-24T08:28:14.378Z,7.47
2017-08-24T08:30:40.927Z,6.80
2017-08-24T08:33:07.420Z,6.65
2017-08-24T08:35:33.884Z,6.68
2017-08-24T08:38:01.147Z,7.00
2017-08-24T08:40:27.631Z,6.32
2017-08-24T08:45:51.483Z,6.57
2017-08-24T08:48:17.937Z,6.87
2017-08-24T08:50:44.417Z,7.50
2017-08-24T08:53:10.846Z,7.15
2017-08-24T08:55:37.326Z,8.10
2017-08-24T08:58:03.789Z,7.55
2017-08-24T09:00:30.280Z,8.38
2017-08-24T09:02:56.773Z,8.00
2017-08-24T09:05:23.485Z,7.35
2017-08-24T09:07:49.959Z,7.50
2017-08-24T09:10:16.385Z,7.10
2017-08-24T09:12:42.825Z,6.55
2017-08-24T09:15:09.318Z,7.60
2017-08-24T09:17:35.773Z,6.97
2017-08-24T09:20:02.366Z,6.90
2017-08-24T09:22:28.850Z,7.37
2017-08-24T09:24:55.310Z,7.40
2017-08-24T09:27:21.783Z,6.45
2017-08-24T09:29:48.217Z,7.78
2017-08-24T09:32:14.696Z,6.10
2017-08-24T09:34:41.222Z,6.65
2017-08-24T09:37:07.687Z,6.55
2017-08-24T09:39:34.177Z,6.07
2017-08-24T09:42:00.613Z,5.75
2017-08-24T09:44:27.097Z,6.10
2017-08-24T09:46:53.537Z,6.20
2017-08-24T09:49:20.059Z,5.80
2017-08-24T09:51:46.490Z,5.40
2017-08-24T09:54:12.929Z,6.12
2017-08-24T09:56:39.577Z,4.97
2017-08-24T09:59:06.005Z,5.55
2017-08-24T10:01:32.519Z,5.20
2017-08-24T10:03:58.973Z,5.60
2017-08-24T10:06:25.445Z,5.22
2017-08-24T10:08:51.992Z,5.22
2017-08-24T10:11:18.465Z,5.57
2017-08-24T10:13:45.041Z,5.45
2017-08-24T10:16:11.549Z,4.75
2017-08-24T10:18:38.040Z,5.37
2017-08-24T10:21:04.603Z,4.95
2017-08-24T10:23:31.138Z,5.35
2017-08-24T10:25:57.644Z,4.97
2017-08-24T10:28:24.667Z,5.30
2017-08-24T10:30:51.213Z,4.43
2017-08-24T10:33:17.653Z,5.15
2017-08-24T10:35:44.134Z,5.30
2017-08-24T10:38:10.673Z,5.12
2017-08-24T10:40:37.198Z,4.85
2017-08-24T10:43:03.630Z,4.65
2017-08-24T10:45:30.089Z,4.90
2017-08-24T10:47:56.522Z,4.40
2017-08-24T10:50:23.833Z,4.72
2017-08-24T11:05:47.344Z,4.30
2017-08-24T11:08:13.797Z,4.43
2017-08-24T11:10:40.253Z,4.57
2017-08-24T11:13:06.813Z,4.90
2017-08-24T11:15:33.266Z,5.10
2017-08-24T11:17:59.773Z,4.40
2017-08-24T11:20:26.242Z,4.55
2017-08-24T11:22:52.760Z,4.65
2017-08-24T11:25:19.240Z,4.50
2017-08-24T11:27:45.677Z,5.37
2017-08-24T11:30:12.113Z,4.50
2017-08-24T11:32:38.590Z,4.80
2017-08-24T11:35:05.204Z,5.10
2017-08-24T11:37:31.633Z,4.32
2017-08-24T11:39:58.069Z,5.20
2017-08-24T11:42:24.549Z,4.53
2017-08-24T11:44:50.999Z,5.35
2017-08-24T11:47:17.450Z,4.47
2017-08-24T11:49:44.656Z,4.40
2017-08-24T11:52:11.215Z,4.35
2017-08-24T11:54:37.693Z,4.90
2017-08-24T11:57:04.127Z,5.12
2017-08-24T11:59:30.616Z,4.40
2017-08-24T12:01:57.096Z,5.15
2017-08-24T12:04:23.521Z,4.20
2017-08-24T12:06:49.960Z,4.60
2017-08-24T12:09:16.424Z,4.62
2017-08-24T12:11:42.905Z,4.78
2017-08-24T12:14:09.394Z,4.10
2017-08-24T12:16:35.873Z,4.35
2017-08-24T12:19:02.434Z,4.30
2017-08-24T12:21:28.934Z,5.05
2017-08-24T12:23:55.444Z,4.95
2017-08-24T12:26:21.870Z,4.70
2017-08-24T12:28:48.313Z,5.20
2017-08-24T12:31:14.889Z,4.45
2017-08-24T12:33:41.352Z,4.65
2017-08-24T12:36:07.785Z,4.62
2017-08-24T12:38:34.237Z,4.28
2017-08-24T12:41:00.710Z,11.20
2017-08-24T12:43:27.238Z,4.50
2017-08-24T12:45:53.712Z,4.20
2017-08-24T12:48:20.162Z,4.32
2017-08-24T12:50:46.602Z,5.50
2017-08-24T12:53:13.075Z,5.90
2017-08-24T12:55:39.504Z,4.20
2017-08-24T12:58:05.983Z,4.10
2017-08-24T13:00:32.472Z,4.18
2017-08-24T13:02:58.926Z,5.22
2017-08-24T13:05:25.393Z,4.18
2017-08-24T13:07:51.845Z,4.87
2017-08-24T13:10:18.374Z,4.55
2017-08-24T13:12:44.816Z,3.80
2017-08-24T13:15:11.324Z,4.10
2017-08-24T13:17:37.798Z,3.92
2017-08-24T13:20:04.267Z,4.12
2017-08-24T13:22:30.707Z,3.83
2017-08-24T13:24:57.242Z,4.10
2017-08-24T13:27:23.707Z,4.57
2017-08-24T13:29:50.181Z,3.80
2017-08-24T13:32:16.696Z,3.47
2017-08-24T13:34:43.182Z,3.97
2017-08-24T13:37:09.613Z,4.10
2017-08-24T13:39:36.059Z,3.80
2017-08-24T13:42:02.521Z,3.87
2017-08-24T13:44:29.731Z,4.18
2017-08-24T13:46:56.212Z,3.90
2017-08-24T13:49:22.682Z,3.55
2017-08-24T13:51:49.160Z,4.40
2017-08-24T13:54:15.609Z,4.20
2017-08-24T13:56:42.053Z,3.50
2017-08-24T13:59:08.489Z,3.72
2017-08-24T14:01:34.966Z,3.80
2017-08-24T14:04:01.357Z,3.97
2017-08-24T14:06:27.792Z,3.45
2017-08-24T14:08:54.216Z,3.70
2017-08-24T14:11:20.692Z,3.50
2017-08-24T14:13:47.063Z,3.95
2017-08-24T14:16:13.489Z,3.47
2017-08-24T14:18:39.865Z,3.80
2017-08-24T14:21:06.295Z,3.95
2017-08-24T14:23:41.226Z,3.28
2017-08-24T14:26:08.961Z,3.65
2017-08-24T14:28:35.353Z,3.28
2017-08-24T14:31:01.754Z,3.37
2017-08-24T14:33:28.152Z,3.75
2017-08-24T14:35:54.593Z,3.45
2017-08-24T14:38:21.069Z,3.58
2017-08-24T14:40:47.479Z,3.83
2017-08-24T14:43:13.902Z,3.45
2017-08-24T14:45:40.304Z,3.55
2017-08-24T14:48:06.740Z,3.95
2017-08-24T14:50:33.171Z,3.83
2017-08-24T14:52:59.571Z,3.60
2017-08-24T14:55:25.961Z,3.75
2017-08-24T14:57:52.424Z,3.53
2017-08-24T15:00:18.844Z,3.45
2017-08-24T15:02:45.262Z,3.35
2017-08-24T15:05:11.738Z,3.10
2017-08-24T15:07:38.137Z,3.35
2017-08-24T15:10:04.585Z,2.87
2017-08-24T15:12:31.030Z,3.60
2017-08-24T15:14:57.453Z,3.80
2017-08-24T15:17:23.868Z,3.20
2017-08-24T15:19:50.265Z,2.90
2017-08-24T15:22:16.657Z,3.35
2017-08-24T15:24:43.090Z,2.90
2017-08-24T15:27:09.498Z,3.42
2017-08-24T15:29:35.897Z,3.60
2017-08-24T15:32:02.302Z,3.30
2017-08-24T15:34:28.749Z,3.53
2017-08-24T15:36:55.149Z,3.78
2017-08-24T15:39:21.542Z,3.72
2017-08-24T15:41:47.966Z,3.25
2017-08-24T15:44:14.348Z,4.10
2017-08-24T15:46:40.850Z,3.55
2017-08-24T15:49:07.561Z,3.85
2017-08-24T15:51:33.964Z,3.72
2017-08-24T15:54:00.364Z,3.53
2017-08-24T15:56:26.793Z,4.00
2017-08-24T15:58:53.213Z,3.70
2017-08-24T16:01:19.573Z,3.90
2017-08-24T16:03:45.981Z,3.87
2017-08-24T16:06:12.384Z,4.28
2017-08-24T16:08:38.796Z,4.30
2017-08-24T16:11:05.180Z,4.40
2017-08-24T16:13:31.558Z,4.22
2017-08-24T16:15:57.967Z,4.30
2017-08-24T16:18:25.028Z,4.90
2017-08-24T16:20:51.457Z,4.55
2017-08-24T16:23:17.854Z,4.85
2017-08-24T16:25:44.233Z,4.12
2017-08-24T16:28:10.658Z,4.10
2017-08-24T16:30:37.116Z,3.75
2017-08-24T16:33:03.504Z,4.20
2017-08-24T16:35:29.923Z,4.10
2017-08-24T16:37:56.394Z,3.70
2017-08-24T16:40:22.991Z,3.55
2017-08-24T16:42:49.408Z,3.62
2017-08-24T16:45:16.752Z,4.10
2017-08-24T16:47:43.122Z,3.70
2017-08-24T16:50:09.567Z,4.05
2017-08-24T16:52:36.001Z,3.90
2017-08-24T16:55:02.470Z,4.00
2017-08-24T16:57:28.956Z,4.28
2017-08-24T16:59:55.392Z,4.25
2017-08-24T17:02:21.795Z,4.70
2017-08-24T17:04:48.168Z,3.95
2017-08-24T17:07:14.553Z,4.28
2017-08-24T17:09:41.076Z,4.35
2017-08-24T17:12:07.468Z,3.70
2017-08-24T17:14:33.886Z,4.95
2017-08-24T17:17:01.004Z,4.25
2017-08-24T17:19:27.424Z,4.10
2017-08-24T17:21:53.831Z,4.60
2017-08-24T17:24:20.245Z,4.45
2017-08-24T17:26:47.524Z,4.75
2017-08-24T17:29:13.924Z,3.80
2017-08-24T17:31:41.298Z,4.30
2017-08-24T17:34:07.709Z,4.95
2017-08-24T17:36:34.143Z,4.75
2017-08-24T17:39:00.552Z,4.80
2017-08-24T17:41:27.043Z,4.15
2017-08-24T17:43:53.417Z,4.50
2017-08-24T17:46:19.823Z,4.30
2017-08-24T17:48:46.228Z,4.62
2017-08-24T17:51:12.650Z,4.40
2017-08-24T17:53:39.138Z,4.60
2017-08-24T17:56:05.590Z,3.97
2017-08-24T17:58:31.976Z,3.80
2017-08-24T18:00:58.371Z,4.12
2017-08-24T18:03:24.760Z,3.95
2017-08-24T18:05:51.181Z,4.80
2017-08-24T18:08:17.585Z,4.15
2017-08-24T18:10:43.989Z,4.82
2017-08-24T18:13:10.420Z,4.60
2017-08-24T18:15:36.844Z,4.22
2017-08-24T18:18:03.285Z,4.15
2017-08-24T18:20:29.708Z,4.45
2017-08-24T18:22:56.105Z,3.90
2017-08-24T18:25:22.517Z,4.55
2017-08-24T18:27:48.905Z,4.20
2017-08-24T18:30:15.401Z,3.90
2017-08-24T18:32:41.847Z,3.80
2017-08-24T18:35:08.267Z,3.90
2017-08-24T18:37:34.773Z,3.97
2017-08-24T18:40:01.232Z,3.80
2017-08-24T18:42:27.698Z,3.83
2017-08-24T18:44:54.092Z,3.72
2017-08-24T18:47:20.502Z,3.80
2017-08-24T18:49:47.082Z,3.78
2017-08-24T18:52:13.496Z,4.05
2017-08-24T18:54:40.429Z,3.20
2017-08-24T18:57:06.856Z,3.30
2017-08-24T18:59:33.282Z,3.30
2017-08-24T19:01:59.743Z,3.45
2017-08-24T19:04:26.200Z,3.17
2017-08-24T19:06:52.702Z,2.70
2017-08-24T19:09:19.199Z,3.37
2017-08-24T19:11:45.666Z,3.20
2017-08-24T19:14:12.049Z,3.42
2017-08-24T19:16:38.787Z,3.08
2017-08-24T19:19:05.222Z,2.95
2017-08-24T19:21:31.643Z,3.50
2017-08-24T19:23:58.070Z,3.40
2017-08-24T19:26:25.464Z,4.10
2017-08-24T19:28:52.136Z,3.80
2017-08-24T19:31:21.264Z,3.78
2017-08-24T19:33:48.669Z,3.20
2017-08-24T19:36:15.114Z,3.95
2017-08-24T19:38:41.563Z,3.67
2017-08-24T19:41:08.018Z,3.05
2017-08-24T19:43:34.536Z,2.97
2017-08-24T19:46:00.989Z,3.22
2017-08-24T19:48:27.535Z,3.20
2017-08-24T19:50:54.033Z,2.85
2017-08-24T19:53:20.561Z,2.70
2017-08-24T19:55:47.125Z,3.10
2017-08-24T19:58:13.576Z,4.03
2017-08-24T20:00:40.215Z,3.10
2017-08-24T20:03:07.042Z,3.15
2017-08-24T20:05:33.538Z,2.97
2017-08-24T20:08:00.033Z,3.00
2017-08-24T20:10:26.544Z,3.35
2017-08-24T20:12:52.981Z,3.42
2017-08-24T20:15:19.482Z,3.53
2017-08-24T20:17:45.987Z,3.30
2017-08-24T20:20:12.518Z,3.30
2017-08-24T20:22:39.113Z,3.62
2017-08-24T20:25:05.574Z,3.50
2017-08-24T20:27:32.060Z,3.45
2017-08-24T20:29:58.592Z,3.45
2017-08-24T20:32:25.052Z,3.20
2017-08-24T20:34:51.521Z,3.65
2017-08-24T20:37:17.960Z,4.05
2017-08-24T20:39:44.459Z,3.42
2017-08-24T20:42:10.981Z,3.65
2017-08-24T20:44:37.596Z,3.92
2017-08-24T20:47:04.080Z,4.03
2017-08-24T20:49:30.573Z,3.47
2017-08-24T20:51:57.036Z,4.07
2017-08-24T20:54:23.500Z,3.70
2017-08-24T20:56:49.983Z,3.30
2017-08-24T20:59:16.941Z,3.62
2017-08-24T21:01:43.510Z,3.78
2017-08-24T21:04:09.998Z,3.60
2017-08-24T21:06:36.490Z,3.80
2017-08-24T21:09:03.054Z,3.62
2017-08-24T21:11:29.518Z,3.40
2017-08-24T21:13:56.017Z,3.37
2017-08-24T21:16:22.429Z,3.40
2017-08-24T21:18:48.864Z,3.42
2017-08-24T21:21:15.346Z,3.50
2017-08-24T21:23:41.859Z,3.03
2017-08-24T21:26:08.313Z,4.00
2017-08-24T21:28:34.767Z,4.10
2017-08-24T21:31:01.221Z,3.40
2017-08-24T21:33:27.714Z,3.30
2017-08-24T21:35:54.152Z,3.40
2017-08-24T21:38:20.581Z,3.05
2017-08-24T21:40:47.125Z,3.10
2017-08-24T21:43:13.553Z,3.47
2017-08-24T21:45:40.032Z,3.33
2017-08-24T21:48:06.454Z,3.17
2017-08-24T21:50:33.034Z,3.22
2017-08-24T21:52:59.532Z,3.08
2017-08-24T21:55:25.979Z,3.25
2017-08-24T21:57:52.415Z,3.30
2017-08-24T22:00:18.894Z,3.40
2017-08-24T22:02:45.433Z,3.17
2017-08-24T22:05:11.882Z,3.62
2017-08-24T22:07:38.341Z,3.05
2017-08-24T22:10:04.886Z,3.40
2017-08-24T22:12:31.320Z,3.17
2017-08-24T22:14:57.813Z,3.25
2017-08-24T22:17:24.271Z,3.12
2017-08-24T22:19:51.481Z,3.40
2017-08-24T22:22:17.916Z,3.15
2017-08-24T22:24:44.469Z,2.90
2017-08-24T22:27:10.894Z,2.80
2017-08-24T22:29:37.348Z,3.10
2017-08-24T22:32:03.824Z,2.90
2017-08-24T22:34:30.257Z,2.92
2017-08-24T22:36:56.745Z,2.70
2017-08-24T22:39:23.216Z,2.90
2017-08-24T22:41:49.652Z,2.83
2017-08-24T22:44:16.111Z,2.47
2017-08-24T22:46:42.606Z,2.92
2017-08-24T22:49:09.078Z,2.92
2017-08-24T22:51:35.656Z,2.90
2017-08-24T22:54:08.237Z,3.10
2017-08-24T22:56:40.665Z,2.87
2017-08-24T23:13:04.736Z,2.60
2017-08-24T23:15:31.249Z,2.50
2017-08-24T23:17:57.677Z,3.00
2017-08-24T23:20:24.204Z,2.80
2017-08-24T23:22:50.697Z,2.90
2017-08-24T23:25:17.193Z,2.65
2017-08-24T23:27:43.751Z,3.47
2017-08-24T23:30:10.221Z,2.90
2017-08-24T23:32:36.784Z,2.72
2017-08-24T23:35:03.242Z,3.00
2017-08-24T23:37:29.768Z,2.85
2017-08-24T23:39:56.190Z,2.55
2017-08-24T23:42:22.624Z,2.95
2017-08-24T23:44:49.117Z,2.80
2017-08-24T23:47:15.582Z,2.50
2017-08-24T23:49:42.033Z,2.97
2017-08-24T23:52:08.488Z,2.75
2017-08-24T23:54:34.914Z,2.83
2017-08-24T23:57:02.187Z,2.97
2017-08-24T23:59:28.662Z,2.85
